Helena, Arkansas
Current Conditions -  °F | °C
As of 8:35 PM on Friday 24 Oct 2014 (Local Time) from KCKM Reporting Station
Scattered Clouds Scattered Clouds  
Wind Chill: 59°   Ceiling: Unl
Heat Index: 59°   Visibility: 10mi
Dew Point: 54°   Wind: 0mph
Humidity: 82%   Direction: NA
Pressure: 30.11"   Gusts: NA
Location:  34.53°N, 90.59°W
Report Text: KCKM 250135Z AUTO 00000KT 10SM SCT030 15/12 A3011 RMK AO1
Loading
Personal Weather Stations






























Interactive Weather Map
Tropical Storm Tracking
New forecast layout! Learn more

10-Day Weather Forecast

Advertisements
Track Severe Weather on mobile